createdAt,value
2019-01-21T00:00:49.969Z,99.90
2019-01-21T00:03:18.773Z,99.90
2019-01-21T00:05:47.348Z,99.90
2019-01-21T00:08:16.051Z,99.90
2019-01-21T00:10:44.816Z,99.90
2019-01-21T00:13:13.547Z,99.90
2019-01-21T00:15:42.295Z,99.90
2019-01-21T00:18:11.133Z,99.90
2019-01-21T00:20:39.837Z,99.90
2019-01-21T00:23:08.611Z,99.90
2019-01-21T00:25:37.317Z,99.90
2019-01-21T00:28:06.145Z,99.90
2019-01-21T00:30:34.849Z,99.90
2019-01-21T00:33:03.626Z,99.90
2019-01-21T00:35:32.238Z,99.90
2019-01-21T00:38:00.990Z,99.90
2019-01-21T00:40:29.581Z,99.90
2019-01-21T00:42:58.170Z,99.90
2019-01-21T00:45:26.797Z,99.90
2019-01-21T00:47:55.421Z,99.90
2019-01-21T00:50:24.010Z,99.90
2019-01-21T00:52:52.632Z,99.90
2019-01-21T00:55:21.340Z,99.90
2019-01-21T00:57:49.997Z,99.90
2019-01-21T01:00:23.949Z,99.90
2019-01-21T01:02:52.677Z,99.90
2019-01-21T01:05:22.142Z,99.90
2019-01-21T01:07:50.870Z,99.90
2019-01-21T01:10:19.644Z,99.90
2019-01-21T01:12:48.370Z,99.90
2019-01-21T01:15:17.138Z,99.90
2019-01-21T01:17:45.849Z,99.90
2019-01-21T01:20:16.894Z,99.90
2019-01-21T01:22:45.617Z,99.90
2019-01-21T01:25:14.382Z,99.90
2019-01-21T01:27:43.119Z,99.90
2019-01-21T01:30:14.197Z,99.90
2019-01-21T01:32:42.931Z,99.90
2019-01-21T01:35:14.412Z,99.90
2019-01-21T01:37:43.441Z,99.90
2019-01-21T01:40:14.585Z,99.90
2019-01-21T01:42:43.645Z,99.90
2019-01-21T01:45:15.908Z,99.90
2019-01-21T01:47:45.115Z,99.90
2019-01-21T01:50:14.091Z,99.90
2019-01-21T01:52:42.956Z,99.90
2019-01-21T01:55:11.687Z,99.90
2019-01-21T01:57:40.465Z,99.90
2019-01-21T02:00:12.496Z,99.90
2019-01-21T02:02:41.162Z,99.90
2019-01-21T02:05:09.937Z,99.90
2019-01-21T02:07:38.597Z,99.90
2019-01-21T02:10:10.681Z,99.90
2019-01-21T02:12:39.346Z,99.90
2019-01-21T02:15:13.484Z,99.90
2019-01-21T02:17:42.257Z,99.90
2019-01-21T02:20:16.412Z,99.90
2019-01-21T02:22:48.083Z,99.90
2019-01-21T02:25:17.169Z,99.90
2019-01-21T02:28:01.130Z,99.90
2019-01-21T02:30:52.658Z,99.90
2019-01-21T02:33:40.838Z,99.90
2019-01-21T02:36:15.103Z,99.90
2019-01-21T02:38:49.397Z,99.90
2019-01-21T02:41:23.755Z,99.90
2019-01-21T02:44:14.741Z,99.90
2019-01-21T02:46:49.702Z,99.90
2019-01-21T02:49:39.403Z,99.90
2019-01-21T02:52:29.216Z,99.90
2019-01-21T02:55:09.787Z,99.90
2019-01-21T02:58:04.130Z,99.90
2019-01-21T03:00:50.763Z,99.90
2019-01-21T03:03:25.201Z,99.90
2019-01-21T03:06:08.508Z,99.90
2019-01-21T03:08:48.785Z,99.90
2019-01-21T03:11:26.493Z,99.90
2019-01-21T03:14:01.084Z,99.90
2019-01-21T03:16:54.076Z,99.90
2019-01-21T03:19:53.003Z,99.90
2019-01-21T03:22:39.837Z,99.90
2019-01-21T03:25:38.768Z,99.90
2019-01-21T03:28:25.482Z,99.90
2019-01-21T03:31:14.289Z,99.90
2019-01-21T03:33:51.987Z,99.90
2019-01-21T03:36:32.123Z,99.90
2019-01-21T03:39:20.428Z,99.90
2019-01-21T03:42:01.242Z,99.90
2019-01-21T03:45:09.797Z,99.90
2019-01-21T03:47:40.733Z,99.90
2019-01-21T03:50:17.855Z,99.90
2019-01-21T03:53:07.486Z,99.90
2019-01-21T03:55:36.277Z,99.90
2019-01-21T03:58:10.877Z,99.90
2019-01-21T04:00:48.388Z,99.90
2019-01-21T04:03:31.887Z,99.90
2019-01-21T04:06:06.533Z,99.90
2019-01-21T04:08:41.120Z,99.90
2019-01-21T04:11:18.709Z,99.90
2019-01-21T04:14:09.811Z,99.90
2019-01-21T04:16:41.522Z,99.90
2019-01-21T04:19:24.991Z,99.90
2019-01-21T04:21:59.671Z,99.90
2019-01-21T04:24:37.181Z,99.90
2019-01-21T04:27:34.881Z,99.90
2019-01-21T04:30:15.296Z,99.90
2019-01-21T04:32:46.971Z,99.90
2019-01-21T04:35:18.666Z,99.90
2019-01-21T04:37:59.528Z,99.90
2019-01-21T04:40:40.203Z,99.90
2019-01-21T04:43:14.488Z,99.90
2019-01-21T04:46:19.260Z,99.90
2019-01-21T04:49:02.953Z,99.90
2019-01-21T04:51:40.686Z,99.90
2019-01-21T04:54:18.092Z,99.90
2019-01-21T04:56:49.800Z,99.90
2019-01-21T04:59:30.777Z,99.90
2019-01-21T05:02:08.349Z,99.90
2019-01-21T05:05:04.159Z,99.90
2019-01-21T05:07:50.840Z,99.90
2019-01-21T05:10:28.374Z,99.90
2019-01-21T05:13:29.383Z,99.90
2019-01-21T05:16:03.910Z,99.90
2019-01-21T05:18:53.678Z,99.90
2019-01-21T05:21:25.392Z,99.90
2019-01-21T05:24:22.930Z,99.90
2019-01-21T05:27:00.647Z,99.90
2019-01-21T05:29:50.508Z,99.90
2019-01-21T05:32:34.202Z,99.90
2019-01-21T05:35:22.385Z,99.90
2019-01-21T05:38:21.194Z,99.90
2019-01-21T05:41:05.251Z,99.90
2019-01-21T05:43:52.261Z,99.90
2019-01-21T05:46:46.634Z,99.90
2019-01-21T05:49:30.449Z,99.90
2019-01-21T05:52:07.973Z,99.90
2019-01-21T05:55:11.723Z,99.90
2019-01-21T05:57:49.024Z,99.90
2019-01-21T06:00:23.256Z,99.90
2019-01-21T06:03:06.457Z,99.90
2019-01-21T06:06:04.751Z,99.90
2019-01-21T06:09:04.349Z,99.90
2019-01-21T06:11:56.885Z,99.90
2019-01-21T06:14:31.273Z,99.90
2019-01-21T06:17:25.745Z,99.90
2019-01-21T06:20:20.094Z,99.90
2019-01-21T06:22:57.783Z,99.90
2019-01-21T06:25:47.568Z,99.90
2019-01-21T06:28:36.080Z,99.90
2019-01-21T06:31:42.674Z,99.90
2019-01-21T06:34:23.116Z,99.90
2019-01-21T06:37:00.847Z,99.90
2019-01-21T06:39:52.071Z,99.90
2019-01-21T06:42:26.218Z,99.90
2019-01-21T06:45:06.932Z,99.90
2019-01-21T06:47:44.540Z,99.90
2019-01-21T06:50:31.375Z,99.90
2019-01-21T06:53:03.080Z,99.90
2019-01-21T06:55:56.126Z,99.90
2019-01-21T06:58:34.008Z,99.90
2019-01-21T07:01:22.242Z,99.90
2019-01-21T07:04:06.180Z,99.90
2019-01-21T07:06:43.834Z,99.90
2019-01-21T07:09:32.257Z,99.90
2019-01-21T07:12:06.737Z,99.90
2019-01-21T07:15:12.669Z,99.90
2019-01-21T07:18:03.020Z,99.90
2019-01-21T07:20:54.136Z,99.90
2019-01-21T07:23:54.492Z,99.90
2019-01-21T07:26:38.095Z,99.90
2019-01-21T07:29:31.853Z,99.90
2019-01-21T07:32:21.546Z,99.90
2019-01-21T07:35:10.683Z,99.90
2019-01-21T07:37:48.021Z,99.90
2019-01-21T07:40:25.746Z,99.90
2019-01-21T07:43:15.351Z,99.90
2019-01-21T07:45:53.026Z,99.90
2019-01-21T07:48:39.718Z,99.90
2019-01-21T07:51:31.105Z,99.90
2019-01-21T07:54:08.402Z,99.90
2019-01-21T07:57:02.793Z,99.90
2019-01-21T07:59:46.469Z,99.90
2019-01-21T08:02:27.367Z,99.90
2019-01-21T08:05:01.577Z,99.90
2019-01-21T08:07:42.135Z,99.90
2019-01-21T08:10:22.820Z,99.90
2019-01-21T08:13:02.795Z,99.90
2019-01-21T08:15:46.324Z,99.90
2019-01-21T08:18:23.700Z,99.90
2019-01-21T08:21:04.161Z,99.90
2019-01-21T08:23:38.496Z,99.90
2019-01-21T08:26:15.859Z,99.90
2019-01-21T08:29:08.778Z,99.90
2019-01-21T08:31:42.892Z,99.90
2019-01-21T08:34:26.653Z,99.90
2019-01-21T08:37:10.120Z,99.90
2019-01-21T08:39:56.803Z,99.90
2019-01-21T08:42:34.023Z,99.90
2019-01-21T08:45:26.961Z,99.90
2019-01-21T08:48:10.747Z,99.90
2019-01-21T08:50:51.205Z,99.90
2019-01-21T08:53:25.644Z,99.90
2019-01-21T08:56:00.373Z,99.80
2019-01-21T08:58:50.338Z,99.20
2019-01-21T09:01:40.385Z,98.80
2019-01-21T09:04:26.639Z,97.90
2019-01-21T09:07:00.974Z,97.70
2019-01-21T09:09:49.369Z,95.90
2019-01-21T09:12:26.833Z,95.40
2019-01-21T09:15:26.029Z,96.10
2019-01-21T09:18:15.320Z,96.50
2019-01-21T09:21:01.908Z,96.40
2019-01-21T09:23:57.780Z,95.10
2019-01-21T09:26:35.045Z,95.40
2019-01-21T09:29:27.053Z,92.80
2019-01-21T09:32:15.315Z,90.90
2019-01-21T09:34:49.492Z,89.10
2019-01-21T09:37:26.490Z,90.00
2019-01-21T09:40:13.013Z,88.60
2019-01-21T09:43:01.436Z,89.80
2019-01-21T09:45:45.019Z,88.10
2019-01-21T09:48:12.643Z,89.00
2019-01-21T09:50:42.705Z,87.10
2019-01-21T09:53:11.723Z,87.40
2019-01-21T09:55:41.964Z,84.80
2019-01-21T09:58:10.684Z,82.10
2019-01-21T10:00:39.550Z,82.50
2019-01-21T10:03:09.668Z,83.70
2019-01-21T10:05:39.928Z,80.80
2019-01-21T10:08:17.437Z,85.20
2019-01-21T10:11:05.544Z,86.20
2019-01-21T10:13:53.940Z,82.50
2019-01-21T10:16:34.485Z,79.40
2019-01-21T10:19:30.322Z,81.40
2019-01-21T10:22:10.803Z,77.60
2019-01-21T10:24:57.410Z,80.70
2019-01-21T10:27:38.112Z,76.30
2019-01-21T10:30:21.659Z,78.80
2019-01-21T10:33:05.125Z,78.30
2019-01-21T10:35:57.833Z,78.20
2019-01-21T10:38:47.413Z,79.40
2019-01-21T10:41:24.834Z,75.10
2019-01-21T10:44:02.654Z,76.70
2019-01-21T10:46:46.317Z,73.90
2019-01-21T10:49:37.494Z,75.40
2019-01-21T10:52:44.272Z,75.80
2019-01-21T10:55:30.855Z,73.80
2019-01-21T10:58:11.653Z,72.60
2019-01-21T11:00:59.926Z,72.10
2019-01-21T11:03:40.266Z,71.00
2019-01-21T11:06:41.178Z,69.10
2019-01-21T11:09:18.659Z,68.60
2019-01-21T11:12:17.544Z,70.00
2019-01-21T11:14:52.362Z,72.60
2019-01-21T11:17:32.657Z,73.70
2019-01-21T11:20:06.961Z,75.40
2019-01-21T11:22:42.119Z,75.10
2019-01-21T11:25:17.988Z,77.30
2019-01-21T11:27:55.575Z,74.10
2019-01-21T11:30:36.180Z,76.00
2019-01-21T11:33:35.030Z,76.70
2019-01-21T11:36:26.389Z,75.10
2019-01-21T11:39:15.964Z,76.30
2019-01-21T11:41:56.685Z,72.40
2019-01-21T11:44:55.412Z,75.60
2019-01-21T11:47:45.205Z,75.80
2019-01-21T11:50:16.873Z,75.20
2019-01-21T11:52:57.265Z,71.20
2019-01-21T11:55:37.777Z,71.10
2019-01-21T11:58:11.999Z,71.30
2019-01-21T12:00:52.535Z,71.00
2019-01-21T12:03:42.672Z,72.70
2019-01-21T12:06:11.544Z,72.20
2019-01-21T12:08:51.894Z,72.20
2019-01-21T12:11:32.958Z,74.30
2019-01-21T12:14:07.344Z,73.00
2019-01-21T12:16:58.571Z,70.60
2019-01-21T12:19:54.322Z,71.50
2019-01-21T12:22:58.004Z,71.90
2019-01-21T12:25:38.877Z,70.30
2019-01-21T12:28:34.894Z,72.40
2019-01-21T12:31:27.481Z,72.10
2019-01-21T12:34:01.945Z,68.10
2019-01-21T12:36:36.264Z,70.60
2019-01-21T12:39:13.700Z,69.40
2019-01-21T12:42:09.506Z,70.40
2019-01-21T12:44:56.150Z,74.30
2019-01-21T12:47:42.899Z,77.60
2019-01-21T12:50:31.274Z,76.30
2019-01-21T12:53:11.737Z,80.40
2019-01-21T12:55:43.362Z,85.10
2019-01-21T12:58:20.629Z,84.40
2019-01-21T13:01:07.458Z,85.00
2019-01-21T13:03:59.689Z,84.10
2019-01-21T13:06:43.077Z,80.40
2019-01-21T13:09:14.783Z,83.50
2019-01-21T13:11:55.287Z,81.50
2019-01-21T13:14:39.088Z,82.30
2019-01-21T13:17:10.785Z,82.80
2019-01-21T13:19:45.123Z,85.60
2019-01-21T13:22:22.639Z,87.20
2019-01-21T13:25:27.429Z,83.60
2019-01-21T13:28:20.296Z,86.90
2019-01-21T13:31:06.610Z,88.30
2019-01-21T13:34:10.137Z,87.40
2019-01-21T13:36:58.466Z,86.40
2019-01-21T13:40:02.317Z,83.20
2019-01-21T13:42:36.648Z,81.00
2019-01-21T13:45:26.170Z,82.80
2019-01-21T13:48:12.737Z,82.60
2019-01-21T13:50:47.351Z,83.20
2019-01-21T13:53:19.009Z,84.00
2019-01-21T13:56:14.833Z,84.10
2019-01-21T13:59:04.394Z,84.40
2019-01-21T14:01:44.936Z,77.20
2019-01-21T14:04:34.945Z,76.80
2019-01-21T14:07:06.625Z,75.10
2019-01-21T14:09:44.288Z,74.70
2019-01-21T14:12:36.450Z,74.50
2019-01-21T14:15:30.566Z,74.30
2019-01-21T14:18:08.141Z,74.20
2019-01-21T14:20:45.831Z,73.80
2019-01-21T14:23:25.331Z,74.20
2019-01-21T14:26:05.693Z,73.50
2019-01-21T14:28:46.203Z,75.70
2019-01-21T14:31:34.930Z,74.40
2019-01-21T14:34:09.681Z,72.70
2019-01-21T14:36:56.527Z,74.60
2019-01-21T14:39:37.154Z,76.90
2019-01-21T14:42:11.640Z,77.20
2019-01-21T14:44:45.975Z,79.00
2019-01-21T14:47:38.672Z,79.90
2019-01-21T14:50:19.368Z,82.50
2019-01-21T14:53:11.978Z,84.60
2019-01-21T14:56:03.119Z,87.30
2019-01-21T14:58:34.855Z,88.90
2019-01-21T15:01:09.214Z,88.80
2019-01-21T15:03:55.896Z,89.70
2019-01-21T15:06:51.521Z,91.10
2019-01-21T15:09:35.090Z,91.20
2019-01-21T15:12:29.340Z,91.90
2019-01-21T15:15:12.562Z,92.20
2019-01-21T15:17:49.869Z,92.20
2019-01-21T15:20:21.545Z,92.80
2019-01-21T15:22:58.797Z,92.70
2019-01-21T15:25:47.519Z,92.80
2019-01-21T15:28:31.126Z,93.30
2019-01-21T15:31:27.392Z,94.10
2019-01-21T15:33:59.183Z,94.30
2019-01-21T15:36:39.436Z,94.70
2019-01-21T15:39:29.077Z,95.00
2019-01-21T15:42:20.466Z,95.10
2019-01-21T15:44:52.157Z,95.90
2019-01-21T15:47:42.314Z,96.10
2019-01-21T15:50:23.460Z,96.20
2019-01-21T15:53:11.431Z,96.30
2019-01-21T15:55:48.707Z,96.80
2019-01-21T15:58:20.385Z,97.40
2019-01-21T16:00:55.102Z,97.60
2019-01-21T16:03:46.562Z,98.20
2019-01-21T16:06:30.258Z,98.30
2019-01-21T16:09:14.105Z,98.00
2019-01-21T16:12:09.874Z,98.10
2019-01-21T16:14:44.243Z,98.10
2019-01-21T16:17:16.002Z,98.10
2019-01-21T16:19:44.704Z,98.50
2019-01-21T16:22:41.039Z,97.90
2019-01-21T16:25:15.329Z,98.00
2019-01-21T16:28:18.810Z,98.20
2019-01-21T16:30:59.099Z,98.40
2019-01-21T16:33:56.566Z,98.80
2019-01-21T16:36:37.034Z,98.90
2019-01-21T16:39:17.719Z,98.80
2019-01-21T16:41:49.623Z,98.90
2019-01-21T16:44:18.300Z,98.80
2019-01-21T16:46:46.932Z,98.90
2019-01-21T16:49:15.696Z,98.90
2019-01-21T16:51:44.521Z,99.00
2019-01-21T16:54:13.176Z,98.90
2019-01-21T16:56:41.936Z,99.00
2019-01-21T16:59:10.815Z,99.20
2019-01-21T17:01:39.654Z,99.30
2019-01-21T17:04:08.378Z,99.30
2019-01-21T17:06:37.249Z,99.40
2019-01-21T17:09:09.152Z,99.80
2019-01-21T17:11:37.906Z,99.80
2019-01-21T17:14:08.258Z,99.80
2019-01-21T17:16:36.957Z,99.90
2019-01-21T17:19:05.730Z,99.90
2019-01-21T17:24:04.470Z,99.50
2019-01-21T17:26:33.235Z,99.00
2019-01-21T17:29:01.997Z,98.50
2019-01-21T17:31:30.748Z,98.40
2019-01-21T17:33:59.406Z,98.30
2019-01-21T17:36:28.177Z,98.20
2019-01-21T17:38:56.756Z,98.10
2019-01-21T17:41:25.457Z,97.90
2019-01-21T17:43:54.052Z,97.70
2019-01-21T17:46:22.749Z,97.70
2019-01-21T17:48:51.335Z,97.50
2019-01-21T17:51:19.968Z,97.60
2019-01-21T17:53:51.394Z,97.60
2019-01-21T17:56:18.979Z,97.80
2019-01-21T17:58:47.819Z,98.10
2019-01-21T18:01:16.573Z,98.30
2019-01-21T18:03:45.233Z,98.20
2019-01-21T18:06:13.919Z,98.20
2019-01-21T18:08:42.569Z,98.30
2019-01-21T18:11:11.338Z,98.50
2019-01-21T18:13:40.010Z,98.80
2019-01-21T18:16:08.772Z,99.00
2019-01-21T18:18:37.498Z,99.10
2019-01-21T18:21:07.477Z,99.50
2019-01-21T18:23:36.262Z,99.50
2019-01-21T18:26:05.026Z,99.70
2019-01-21T18:28:33.652Z,99.60
2019-01-21T18:31:02.451Z,99.70
2019-01-21T18:33:31.154Z,99.70
2019-01-21T18:35:59.810Z,99.80
2019-01-21T18:38:28.590Z,99.90
2019-01-21T18:40:57.322Z,99.90
2019-01-21T18:43:26.101Z,99.90
2019-01-21T18:45:54.806Z,99.90
2019-01-21T18:48:23.571Z,99.90
2019-01-21T18:50:52.229Z,99.90
2019-01-21T18:53:20.918Z,99.80
2019-01-21T18:55:49.577Z,99.80
2019-01-21T18:58:18.209Z,99.80
2019-01-21T19:00:46.797Z,99.90
2019-01-21T19:03:15.497Z,99.80
2019-01-21T19:05:44.163Z,99.90
2019-01-21T19:08:12.996Z,99.90
2019-01-21T19:10:41.707Z,99.90
2019-01-21T19:13:10.379Z,99.90
2019-01-21T19:15:39.069Z,99.90
2019-01-21T19:18:07.803Z,99.90
2019-01-21T19:20:36.498Z,99.90
2019-01-21T19:23:05.235Z,99.90
2019-01-21T19:25:34.412Z,99.90
2019-01-21T19:28:03.191Z,99.90
2019-01-21T19:30:31.928Z,99.90
2019-01-21T19:33:00.695Z,99.80
2019-01-21T19:35:31.921Z,99.80
2019-01-21T19:38:00.621Z,99.80
2019-01-21T19:40:29.279Z,99.80
2019-01-21T19:42:57.912Z,99.90
2019-01-21T19:45:26.577Z,99.90
2019-01-21T19:47:55.202Z,99.90
2019-01-21T19:50:24.638Z,99.90
2019-01-21T19:52:53.418Z,99.90
2019-01-21T19:55:25.019Z,99.90
2019-01-21T19:57:53.807Z,99.90
2019-01-21T20:00:23.434Z,99.90
2019-01-21T20:02:52.162Z,99.90
2019-01-21T20:05:20.938Z,99.90
2019-01-21T20:07:49.666Z,99.90
2019-01-21T20:10:23.162Z,99.90
2019-01-21T20:12:51.989Z,99.90
2019-01-21T20:15:21.180Z,99.90
2019-01-21T20:17:49.829Z,99.90
2019-01-21T20:20:30.984Z,99.90
2019-01-21T20:22:59.945Z,99.90
2019-01-21T20:25:28.616Z,99.90
2019-01-21T20:27:57.474Z,99.90
2019-01-21T20:30:38.247Z,99.90
2019-01-21T20:33:08.148Z,99.90
2019-01-21T20:35:36.735Z,99.90
2019-01-21T20:38:05.690Z,99.90
2019-01-21T20:40:34.401Z,99.90
2019-01-21T20:43:03.266Z,99.90
2019-01-21T20:45:32.187Z,99.90
2019-01-21T20:48:01.363Z,99.90
2019-01-21T20:50:31.652Z,99.90
2019-01-21T20:53:00.551Z,99.90
2019-01-21T20:55:29.396Z,99.90
2019-01-21T20:57:58.168Z,99.90
2019-01-21T21:00:29.202Z,99.90
2019-01-21T21:02:58.328Z,99.90
2019-01-21T21:05:27.105Z,99.90
2019-01-21T21:07:55.936Z,99.90
2019-01-21T21:10:24.960Z,99.90
2019-01-21T21:12:53.684Z,99.90
2019-01-21T21:15:25.525Z,99.90
2019-01-21T21:17:54.300Z,99.90
2019-01-21T21:20:23.083Z,99.90
2019-01-21T21:22:51.816Z,99.90
2019-01-21T21:25:20.942Z,99.90
2019-01-21T21:27:49.631Z,99.90
2019-01-21T21:30:26.997Z,99.90
2019-01-21T21:32:55.727Z,99.90
2019-01-21T21:35:24.692Z,99.90
2019-01-21T21:37:53.464Z,99.90
2019-01-21T21:40:22.894Z,99.90
2019-01-21T21:42:51.663Z,99.90
2019-01-21T21:45:21.798Z,99.90
2019-01-21T21:47:50.870Z,99.90
2019-01-21T21:50:30.740Z,99.90
2019-01-21T21:52:59.577Z,99.90
2019-01-21T21:55:29.682Z,99.90
2019-01-21T21:57:58.758Z,99.90
2019-01-21T22:00:28.824Z,99.90
2019-01-21T22:02:57.522Z,99.90
2019-01-21T22:05:26.503Z,99.90
2019-01-21T22:07:55.285Z,99.90
2019-01-21T22:10:26.313Z,99.90
2019-01-21T22:12:55.020Z,99.90
2019-01-21T22:15:24.749Z,99.90
2019-01-21T22:17:53.690Z,99.90
2019-01-21T22:20:26.005Z,99.90
2019-01-21T22:22:54.791Z,99.90
2019-01-21T22:25:23.440Z,99.90
2019-01-21T22:27:54.171Z,99.90
2019-01-21T22:30:26.428Z,99.90
2019-01-21T22:32:55.139Z,99.90
2019-01-21T22:35:23.798Z,99.90
2019-01-21T22:37:52.556Z,99.90
2019-01-21T22:40:22.131Z,99.90
2019-01-21T22:42:50.858Z,99.90
2019-01-21T22:45:20.340Z,99.90
2019-01-21T22:47:50.595Z,99.90
2019-01-21T22:50:19.835Z,99.90
2019-01-21T22:52:48.494Z,99.90
2019-01-21T22:55:17.677Z,99.90
2019-01-21T22:57:46.410Z,99.90
2019-01-21T23:00:58.134Z,99.90
2019-01-21T23:03:26.871Z,99.90
2019-01-21T23:05:55.662Z,99.90
2019-01-21T23:08:24.608Z,99.90
2019-01-21T23:10:53.322Z,99.90
2019-01-21T23:13:21.912Z,99.90
2019-01-21T23:15:50.687Z,99.90
2019-01-21T23:18:19.350Z,99.90
2019-01-21T23:20:48.456Z,99.90
2019-01-21T23:23:17.162Z,99.90
2019-01-21T23:25:45.856Z,99.90
2019-01-21T23:28:14.623Z,99.90
2019-01-21T23:30:43.333Z,99.90
2019-01-21T23:33:12.015Z,99.90
2019-01-21T23:35:40.717Z,99.90
2019-01-21T23:38:09.511Z,99.90
2019-01-21T23:40:38.126Z,99.90
2019-01-21T23:43:06.965Z,99.90
2019-01-21T23:45:35.667Z,99.90
2019-01-21T23:48:04.736Z,99.90
2019-01-21T23:50:33.436Z,99.90
2019-01-21T23:53:02.156Z,99.90
2019-01-21T23:55:30.828Z,99.90
2019-01-21T23:57:59.546Z,99.90
